sensor_id;sensor_type;location;lat;lon;timestamp;temperature;humidity
2030;DHT22;1020;48.854;8.830;2023-05-31T00:01:35;13.80;99.90
2030;DHT22;1020;48.854;8.830;2023-05-31T00:04:02;13.80;99.90
2030;DHT22;1020;48.854;8.830;2023-05-31T00:06:29;13.90;99.90
2030;DHT22;1020;48.854;8.830;2023-05-31T00:08:56;13.80;99.90
2030;DHT22;1020;48.854;8.830;2023-05-31T00:11:22;13.70;99.90
2030;DHT22;1020;48.854;8.830;2023-05-31T00:13:51;13.70;99.90
2030;DHT22;1020;48.854;8.830;2023-05-31T00:16:20;13.70;99.90
2030;DHT22;1020;48.854;8.830;2023-05-31T00:18:46;13.60;99.90
2030;DHT22;1020;48.854;8.830;2023-05-31T00:21:13;13.60;99.90
2030;DHT22;1020;48.854;8.830;2023-05-31T00:23:40;13.60;99.90
2030;DHT22;1020;48.854;8.830;2023-05-31T00:26:07;13.50;99.90
2030;DHT22;1020;48.854;8.830;2023-05-31T00:28:33;13.50;99.90
2030;DHT22;1020;48.854;8.830;2023-05-31T00:31:00;13.50;99.90
2030;DHT22;1020;48.854;8.830;2023-05-31T00:33:29;13.50;99.90
2030;DHT22;1020;48.854;8.830;2023-05-31T00:35:55;13.40;99.90
2030;DHT22;1020;48.854;8.830;2023-05-31T00:38:22;13.40;99.90
2030;DHT22;1020;48.854;8.830;2023-05-31T00:40:49;13.30;99.90
2030;DHT22;1020;48.854;8.830;2023-05-31T00:43:16;13.20;99.90
2030;DHT22;1020;48.854;8.830;2023-05-31T00:45:42;13.20;99.90
2030;DHT22;1020;48.854;8.830;2023-05-31T00:48:09;13.10;99.90
2030;DHT22;1020;48.854;8.830;2023-05-31T00:50:37;13.00;99.90
2030;DHT22;1020;48.854;8.830;2023-05-31T00:53:04;12.90;99.90
2030;DHT22;1020;48.854;8.830;2023-05-31T00:55:32;12.80;99.90
2030;DHT22;1020;48.854;8.830;2023-05-31T00:57:59;12.80;99.90
2030;DHT22;1020;48.854;8.830;2023-05-31T01:00:27;12.80;99.90
2030;DHT22;1020;48.854;8.830;2023-05-31T01:02:54;12.80;99.90
2030;DHT22;1020;48.854;8.830;2023-05-31T01:05:21;12.80;99.90
2030;DHT22;1020;48.854;8.830;2023-05-31T01:07:49;12.70;99.90
2030;DHT22;1020;48.854;8.830;2023-05-31T01:10:18;12.60;99.90
2030;DHT22;1020;48.854;8.830;2023-05-31T01:12:52;12.60;99.90
2030;DHT22;1020;48.854;8.830;2023-05-31T01:15:24;12.60;99.90
2030;DHT22;1020;48.854;8.830;2023-05-31T01:17:54;12.50;99.90
2030;DHT22;1020;48.854;8.830;2023-05-31T01:20:27;12.50;99.90
2030;DHT22;1020;48.854;8.830;2023-05-31T01:23:15;12.50;99.90
2030;DHT22;1020;48.854;8.830;2023-05-31T01:25:59;12.40;99.90
2030;DHT22;1020;48.854;8.830;2023-05-31T01:28:30;12.30;99.90
2030;DHT22;1020;48.854;8.830;2023-05-31T01:31:04;12.30;99.90
2030;DHT22;1020;48.854;8.830;2023-05-31T01:33:32;12.30;99.90
2030;DHT22;1020;48.854;8.830;2023-05-31T01:36:00;12.30;99.90
2030;DHT22;1020;48.854;8.830;2023-05-31T01:38:28;12.30;99.90
2030;DHT22;1020;48.854;8.830;2023-05-31T01:40:56;12.30;99.90
2030;DHT22;1020;48.854;8.830;2023-05-31T01:43:25;12.30;99.90
2030;DHT22;1020;48.854;8.830;2023-05-31T01:45:55;12.30;99.90
2030;DHT22;1020;48.854;8.830;2023-05-31T01:48:22;12.30;99.90
2030;DHT22;1020;48.854;8.830;2023-05-31T01:50:49;12.20;99.90
2030;DHT22;1020;48.854;8.830;2023-05-31T01:53:17;12.20;99.90
2030;DHT22;1020;48.854;8.830;2023-05-31T01:55:44;12.20;99.90
2030;DHT22;1020;48.854;8.830;2023-05-31T01:58:12;12.10;99.90
2030;DHT22;1020;48.854;8.830;2023-05-31T02:00:40;12.20;99.90
2030;DHT22;1020;48.854;8.830;2023-05-31T02:03:09;12.20;99.90
2030;DHT22;1020;48.854;8.830;2023-05-31T02:05:36;12.20;99.90
2030;DHT22;1020;48.854;8.830;2023-05-31T02:08:03;12.10;99.90
2030;DHT22;1020;48.854;8.830;2023-05-31T02:10:30;12.10;99.90
2030;DHT22;1020;48.854;8.830;2023-05-31T02:12:57;12.10;99.90
2030;DHT22;1020;48.854;8.830;2023-05-31T02:15:24;12.10;99.90
2030;DHT22;1020;48.854;8.830;2023-05-31T02:17:51;11.90;99.90
2030;DHT22;1020;48.854;8.830;2023-05-31T02:20:19;11.80;99.90
2030;DHT22;1020;48.854;8.830;2023-05-31T02:22:46;11.70;99.90
2030;DHT22;1020;48.854;8.830;2023-05-31T02:25:14;11.50;99.90
2030;DHT22;1020;48.854;8.830;2023-05-31T02:27:41;11.40;99.90
2030;DHT22;1020;48.854;8.830;2023-05-31T02:30:09;11.50;99.90
2030;DHT22;1020;48.854;8.830;2023-05-31T02:32:37;11.50;99.90
2030;DHT22;1020;48.854;8.830;2023-05-31T02:35:04;11.60;99.90
2030;DHT22;1020;48.854;8.830;2023-05-31T02:37:33;11.60;99.90
2030;DHT22;1020;48.854;8.830;2023-05-31T02:40:00;11.60;99.90
2030;DHT22;1020;48.854;8.830;2023-05-31T02:42:32;11.60;99.90
2030;DHT22;1020;48.854;8.830;2023-05-31T02:44:59;11.60;99.90
2030;DHT22;1020;48.854;8.830;2023-05-31T02:47:25;11.60;99.90
2030;DHT22;1020;48.854;8.830;2023-05-31T02:49:52;11.60;99.90
2030;DHT22;1020;48.854;8.830;2023-05-31T02:52:19;11.70;99.90
2030;DHT22;1020;48.854;8.830;2023-05-31T02:54:47;11.60;99.90
2030;DHT22;1020;48.854;8.830;2023-05-31T02:57:14;11.60;99.90
2030;DHT22;1020;48.854;8.830;2023-05-31T02:59:43;11.60;99.90
2030;DHT22;1020;48.854;8.830;2023-05-31T03:02:10;11.60;99.90
2030;DHT22;1020;48.854;8.830;2023-05-31T03:04:37;11.60;99.90
2030;DHT22;1020;48.854;8.830;2023-05-31T03:07:04;11.60;99.90
2030;DHT22;1020;48.854;8.830;2023-05-31T03:09:30;11.50;99.90
2030;DHT22;1020;48.854;8.830;2023-05-31T03:11:58;11.50;99.90
2030;DHT22;1020;48.854;8.830;2023-05-31T03:14:25;11.50;99.90
2030;DHT22;1020;48.854;8.830;2023-05-31T03:16:52;11.50;99.90
2030;DHT22;1020;48.854;8.830;2023-05-31T03:19:19;11.50;99.90
2030;DHT22;1020;48.854;8.830;2023-05-31T03:21:46;11.50;99.90
2030;DHT22;1020;48.854;8.830;2023-05-31T03:24:13;11.40;99.90
2030;DHT22;1020;48.854;8.830;2023-05-31T03:26:40;11.50;99.90
2030;DHT22;1020;48.854;8.830;2023-05-31T03:29:09;11.50;99.90
2030;DHT22;1020;48.854;8.830;2023-05-31T03:31:36;11.50;99.90
2030;DHT22;1020;48.854;8.830;2023-05-31T03:34:03;11.50;99.90
2030;DHT22;1020;48.854;8.830;2023-05-31T03:36:29;11.60;99.90
2030;DHT22;1020;48.854;8.830;2023-05-31T03:38:56;11.70;99.90
2030;DHT22;1020;48.854;8.830;2023-05-31T03:41:23;11.70;99.90
2030;DHT22;1020;48.854;8.830;2023-05-31T03:43:50;11.70;99.90
2030;DHT22;1020;48.854;8.830;2023-05-31T03:46:18;11.60;99.90
2030;DHT22;1020;48.854;8.830;2023-05-31T03:48:45;11.60;99.90
2030;DHT22;1020;48.854;8.830;2023-05-31T03:51:12;11.60;99.90
2030;DHT22;1020;48.854;8.830;2023-05-31T03:53:39;11.50;99.90
2030;DHT22;1020;48.854;8.830;2023-05-31T03:56:06;11.50;99.90
2030;DHT22;1020;48.854;8.830;2023-05-31T03:58:33;11.60;99.90
2030;DHT22;1020;48.854;8.830;2023-05-31T04:01:00;11.70;99.90
2030;DHT22;1020;48.854;8.830;2023-05-31T04:03:29;11.70;99.90
2030;DHT22;1020;48.854;8.830;2023-05-31T04:05:56;11.70;99.90
2030;DHT22;1020;48.854;8.830;2023-05-31T04:08:23;11.70;99.90
2030;DHT22;1020;48.854;8.830;2023-05-31T04:10:50;11.70;99.90
2030;DHT22;1020;48.854;8.830;2023-05-31T04:13:16;11.70;99.90
2030;DHT22;1020;48.854;8.830;2023-05-31T04:15:43;11.80;99.90
2030;DHT22;1020;48.854;8.830;2023-05-31T04:18:10;11.80;99.90
2030;DHT22;1020;48.854;8.830;2023-05-31T04:20:38;11.80;99.90
2030;DHT22;1020;48.854;8.830;2023-05-31T04:23:04;11.80;99.90
2030;DHT22;1020;48.854;8.830;2023-05-31T04:25:31;11.90;99.90
2030;DHT22;1020;48.854;8.830;2023-05-31T04:27:58;11.90;99.90
2030;DHT22;1020;48.854;8.830;2023-05-31T04:30:25;11.90;99.90
2030;DHT22;1020;48.854;8.830;2023-05-31T04:32:52;11.90;99.90
2030;DHT22;1020;48.854;8.830;2023-05-31T04:35:23;11.90;99.90
2030;DHT22;1020;48.854;8.830;2023-05-31T04:37:55;12.00;99.90
2030;DHT22;1020;48.854;8.830;2023-05-31T04:40:24;12.10;99.90
2030;DHT22;1020;48.854;8.830;2023-05-31T04:42:51;12.20;99.90
2030;DHT22;1020;48.854;8.830;2023-05-31T04:45:18;12.20;99.90
2030;DHT22;1020;48.854;8.830;2023-05-31T04:47:44;12.30;99.90
2030;DHT22;1020;48.854;8.830;2023-05-31T04:50:12;12.30;99.90
2030;DHT22;1020;48.854;8.830;2023-05-31T04:52:38;12.40;99.90
2030;DHT22;1020;48.854;8.830;2023-05-31T04:55:09;12.40;99.90
2030;DHT22;1020;48.854;8.830;2023-05-31T04:57:35;12.40;99.90
2030;DHT22;1020;48.854;8.830;2023-05-31T05:00:03;12.50;99.90
2030;DHT22;1020;48.854;8.830;2023-05-31T05:02:33;12.50;99.90
2030;DHT22;1020;48.854;8.830;2023-05-31T05:05:00;12.60;99.90
2030;DHT22;1020;48.854;8.830;2023-05-31T05:07:28;12.70;99.90
2030;DHT22;1020;48.854;8.830;2023-05-31T05:09:55;12.80;99.90
2030;DHT22;1020;48.854;8.830;2023-05-31T05:12:23;12.90;99.90
2030;DHT22;1020;48.854;8.830;2023-05-31T05:14:50;13.10;99.90
2030;DHT22;1020;48.854;8.830;2023-05-31T05:17:17;13.20;99.90
2030;DHT22;1020;48.854;8.830;2023-05-31T05:19:43;13.30;99.90
2030;DHT22;1020;48.854;8.830;2023-05-31T05:22:10;13.40;99.90
2030;DHT22;1020;48.854;8.830;2023-05-31T05:24:37;13.40;99.90
2030;DHT22;1020;48.854;8.830;2023-05-31T05:27:04;13.50;99.90
2030;DHT22;1020;48.854;8.830;2023-05-31T05:29:33;13.60;99.90
2030;DHT22;1020;48.854;8.830;2023-05-31T05:32:00;13.80;99.90
2030;DHT22;1020;48.854;8.830;2023-05-31T05:34:26;13.90;99.90
2030;DHT22;1020;48.854;8.830;2023-05-31T05:36:53;14.00;99.90
2030;DHT22;1020;48.854;8.830;2023-05-31T05:39:20;13.90;99.90
2030;DHT22;1020;48.854;8.830;2023-05-31T05:41:47;14.00;99.90
2030;DHT22;1020;48.854;8.830;2023-05-31T05:44:14;14.10;99.90
2030;DHT22;1020;48.854;8.830;2023-05-31T05:46:43;14.20;99.90
2030;DHT22;1020;48.854;8.830;2023-05-31T05:49:09;14.20;99.90
2030;DHT22;1020;48.854;8.830;2023-05-31T05:51:37;14.40;99.90
2030;DHT22;1020;48.854;8.830;2023-05-31T05:54:04;14.50;99.90
2030;DHT22;1020;48.854;8.830;2023-05-31T05:56:31;14.60;99.90
2030;DHT22;1020;48.854;8.830;2023-05-31T05:58:58;14.70;99.90
2030;DHT22;1020;48.854;8.830;2023-05-31T06:01:24;14.80;99.90
2030;DHT22;1020;48.854;8.830;2023-05-31T06:03:53;14.90;99.90
2030;DHT22;1020;48.854;8.830;2023-05-31T06:06:21;15.00;99.90
2030;DHT22;1020;48.854;8.830;2023-05-31T06:08:48;15.10;99.90
2030;DHT22;1020;48.854;8.830;2023-05-31T06:11:14;15.10;99.90
2030;DHT22;1020;48.854;8.830;2023-05-31T06:13:43;15.30;99.90
2030;DHT22;1020;48.854;8.830;2023-05-31T06:16:12;15.40;99.90
2030;DHT22;1020;48.854;8.830;2023-05-31T06:18:39;15.50;99.90
2030;DHT22;1020;48.854;8.830;2023-05-31T06:21:07;15.50;99.90
2030;DHT22;1020;48.854;8.830;2023-05-31T06:23:34;15.50;99.90
2030;DHT22;1020;48.854;8.830;2023-05-31T06:26:01;15.70;99.90
2030;DHT22;1020;48.854;8.830;2023-05-31T06:28:28;15.90;99.90
2030;DHT22;1020;48.854;8.830;2023-05-31T06:30:55;16.00;99.90
2030;DHT22;1020;48.854;8.830;2023-05-31T06:33:22;16.20;99.90
2030;DHT22;1020;48.854;8.830;2023-05-31T06:35:50;16.20;99.90
2030;DHT22;1020;48.854;8.830;2023-05-31T06:38:18;16.50;99.90
2030;DHT22;1020;48.854;8.830;2023-05-31T06:40:47;16.70;99.90
2030;DHT22;1020;48.854;8.830;2023-05-31T06:43:13;16.70;99.90
2030;DHT22;1020;48.854;8.830;2023-05-31T06:45:41;16.70;99.90
2030;DHT22;1020;48.854;8.830;2023-05-31T06:48:08;16.80;99.90
2030;DHT22;1020;48.854;8.830;2023-05-31T06:50:35;16.90;99.90
2030;DHT22;1020;48.854;8.830;2023-05-31T06:53:01;17.00;99.90
2030;DHT22;1020;48.854;8.830;2023-05-31T06:55:29;17.00;99.90
2030;DHT22;1020;48.854;8.830;2023-05-31T06:57:56;17.20;99.90
2030;DHT22;1020;48.854;8.830;2023-05-31T07:00:23;17.30;99.90
2030;DHT22;1020;48.854;8.830;2023-05-31T07:02:50;17.40;99.90
2030;DHT22;1020;48.854;8.830;2023-05-31T07:05:17;17.50;99.90
2030;DHT22;1020;48.854;8.830;2023-05-31T07:07:44;17.90;99.90
2030;DHT22;1020;48.854;8.830;2023-05-31T07:10:11;18.10;99.90
2030;DHT22;1020;48.854;8.830;2023-05-31T07:12:39;18.30;99.90
2030;DHT22;1020;48.854;8.830;2023-05-31T07:15:07;18.50;99.90
2030;DHT22;1020;48.854;8.830;2023-05-31T07:17:34;18.80;99.90
2030;DHT22;1020;48.854;8.830;2023-05-31T07:20:01;19.10;99.90
2030;DHT22;1020;48.854;8.830;2023-05-31T07:22:29;19.30;99.90
2030;DHT22;1020;48.854;8.830;2023-05-31T07:24:55;19.60;99.90
2030;DHT22;1020;48.854;8.830;2023-05-31T07:27:23;19.80;99.90
2030;DHT22;1020;48.854;8.830;2023-05-31T07:29:51;20.40;99.90
2030;DHT22;1020;48.854;8.830;2023-05-31T07:32:18;21.00;99.90
2030;DHT22;1020;48.854;8.830;2023-05-31T07:34:44;21.70;99.90
2030;DHT22;1020;48.854;8.830;2023-05-31T07:37:11;22.60;99.90
2030;DHT22;1020;48.854;8.830;2023-05-31T07:39:38;23.10;99.90
2030;DHT22;1020;48.854;8.830;2023-05-31T07:42:05;23.80;99.90
2030;DHT22;1020;48.854;8.830;2023-05-31T07:44:32;24.10;99.90
2030;DHT22;1020;48.854;8.830;2023-05-31T07:47:00;24.40;99.90
2030;DHT22;1020;48.854;8.830;2023-05-31T07:49:27;25.20;99.90
2030;DHT22;1020;48.854;8.830;2023-05-31T07:51:54;25.40;99.90
2030;DHT22;1020;48.854;8.830;2023-05-31T07:54:21;26.00;99.90
2030;DHT22;1020;48.854;8.830;2023-05-31T07:56:47;26.80;99.90
2030;DHT22;1020;48.854;8.830;2023-05-31T07:59:14;27.20;99.90
2030;DHT22;1020;48.854;8.830;2023-05-31T08:01:42;27.40;99.90
2030;DHT22;1020;48.854;8.830;2023-05-31T08:04:11;28.00;99.90
2030;DHT22;1020;48.854;8.830;2023-05-31T08:06:38;27.90;99.90
2030;DHT22;1020;48.854;8.830;2023-05-31T08:09:07;28.50;99.90
2030;DHT22;1020;48.854;8.830;2023-05-31T08:11:35;28.00;99.90
2030;DHT22;1020;48.854;8.830;2023-05-31T08:14:03;28.40;99.90
2030;DHT22;1020;48.854;8.830;2023-05-31T08:16:30;29.20;99.90
2030;DHT22;1020;48.854;8.830;2023-05-31T08:18:58;29.60;99.90
2030;DHT22;1020;48.854;8.830;2023-05-31T08:21:26;29.10;99.90
2030;DHT22;1020;48.854;8.830;2023-05-31T08:23:53;29.60;99.90
2030;DHT22;1020;48.854;8.830;2023-05-31T08:26:20;29.50;99.90
2030;DHT22;1020;48.854;8.830;2023-05-31T08:28:47;29.20;99.90
2030;DHT22;1020;48.854;8.830;2023-05-31T08:31:14;28.90;99.90
2030;DHT22;1020;48.854;8.830;2023-05-31T08:33:52;29.10;99.90
2030;DHT22;1020;48.854;8.830;2023-05-31T08:36:19;27.30;99.90
2030;DHT22;1020;48.854;8.830;2023-05-31T08:38:47;27.00;99.90
2030;DHT22;1020;48.854;8.830;2023-05-31T08:41:15;27.40;99.90
2030;DHT22;1020;48.854;8.830;2023-05-31T08:43:42;27.30;99.90
2030;DHT22;1020;48.854;8.830;2023-05-31T08:46:09;27.90;99.90
2030;DHT22;1020;48.854;8.830;2023-05-31T08:48:40;27.70;99.90
2030;DHT22;1020;48.854;8.830;2023-05-31T08:51:09;27.70;99.90
2030;DHT22;1020;48.854;8.830;2023-05-31T08:53:37;28.10;99.90
2030;DHT22;1020;48.854;8.830;2023-05-31T08:56:06;28.20;99.90
2030;DHT22;1020;48.854;8.830;2023-05-31T08:58:34;27.90;99.90
2030;DHT22;1020;48.854;8.830;2023-05-31T09:01:02;28.10;99.90
2030;DHT22;1020;48.854;8.830;2023-05-31T09:03:28;28.20;99.90
2030;DHT22;1020;48.854;8.830;2023-05-31T09:05:55;28.70;99.90
2030;DHT22;1020;48.854;8.830;2023-05-31T09:08:22;27.50;99.90
2030;DHT22;1020;48.854;8.830;2023-05-31T09:10:49;28.40;99.90
2030;DHT22;1020;48.854;8.830;2023-05-31T09:13:18;28.60;99.90
2030;DHT22;1020;48.854;8.830;2023-05-31T09:15:46;28.60;99.90
2030;DHT22;1020;48.854;8.830;2023-05-31T09:18:15;28.90;99.90
2030;DHT22;1020;48.854;8.830;2023-05-31T09:20:42;29.30;99.90
2030;DHT22;1020;48.854;8.830;2023-05-31T09:23:09;29.20;99.90
2030;DHT22;1020;48.854;8.830;2023-05-31T09:25:43;29.30;99.90
2030;DHT22;1020;48.854;8.830;2023-05-31T09:28:10;29.00;99.90
2030;DHT22;1020;48.854;8.830;2023-05-31T09:30:38;28.10;99.90
2030;DHT22;1020;48.854;8.830;2023-05-31T09:33:06;28.20;99.90
2030;DHT22;1020;48.854;8.830;2023-05-31T09:35:33;28.00;99.90
2030;DHT22;1020;48.854;8.830;2023-05-31T09:38:03;28.10;99.90
2030;DHT22;1020;48.854;8.830;2023-05-31T09:40:31;28.60;99.90
2030;DHT22;1020;48.854;8.830;2023-05-31T09:42:58;28.80;99.90
2030;DHT22;1020;48.854;8.830;2023-05-31T09:45:26;29.20;99.90
2030;DHT22;1020;48.854;8.830;2023-05-31T09:47:55;29.60;99.90
2030;DHT22;1020;48.854;8.830;2023-05-31T09:50:23;29.80;99.90
2030;DHT22;1020;48.854;8.830;2023-05-31T09:52:55;29.50;99.90
2030;DHT22;1020;48.854;8.830;2023-05-31T09:55:22;30.10;99.90
2030;DHT22;1020;48.854;8.830;2023-05-31T09:57:51;30.20;99.90
2030;DHT22;1020;48.854;8.830;2023-05-31T10:00:18;30.00;99.90
2030;DHT22;1020;48.854;8.830;2023-05-31T10:02:47;29.70;99.90
2030;DHT22;1020;48.854;8.830;2023-05-31T10:05:17;29.70;99.90
2030;DHT22;1020;48.854;8.830;2023-05-31T10:07:45;29.40;99.90
2030;DHT22;1020;48.854;8.830;2023-05-31T10:10:13;30.50;99.90
2030;DHT22;1020;48.854;8.830;2023-05-31T10:12:48;30.60;99.90
2030;DHT22;1020;48.854;8.830;2023-05-31T10:15:17;30.50;99.90
2030;DHT22;1020;48.854;8.830;2023-05-31T10:17:53;30.50;99.90
2030;DHT22;1020;48.854;8.830;2023-05-31T10:20:24;30.40;99.90
2030;DHT22;1020;48.854;8.830;2023-05-31T10:22:54;30.30;99.90
2030;DHT22;1020;48.854;8.830;2023-05-31T10:25:30;30.10;99.90
2030;DHT22;1020;48.854;8.830;2023-05-31T10:28:07;30.00;99.90
2030;DHT22;1020;48.854;8.830;2023-05-31T10:30:35;29.80;99.90
2030;DHT22;1020;48.854;8.830;2023-05-31T10:33:07;29.60;99.90
2030;DHT22;1020;48.854;8.830;2023-05-31T10:35:35;29.80;99.90
2030;DHT22;1020;48.854;8.830;2023-05-31T10:38:02;29.70;99.90
2030;DHT22;1020;48.854;8.830;2023-05-31T10:40:33;29.40;99.90
2030;DHT22;1020;48.854;8.830;2023-05-31T10:43:07;29.60;99.90
2030;DHT22;1020;48.854;8.830;2023-05-31T10:45:38;30.10;99.90
2030;DHT22;1020;48.854;8.830;2023-05-31T10:48:14;30.40;99.90
2030;DHT22;1020;48.854;8.830;2023-05-31T10:50:54;30.60;99.90
2030;DHT22;1020;48.854;8.830;2023-05-31T10:53:22;30.20;99.90
2030;DHT22;1020;48.854;8.830;2023-05-31T10:55:48;30.30;99.90
2030;DHT22;1020;48.854;8.830;2023-05-31T10:58:25;30.00;99.90
2030;DHT22;1020;48.854;8.830;2023-05-31T11:00:53;30.40;99.90
2030;DHT22;1020;48.854;8.830;2023-05-31T11:03:21;31.20;99.90
2030;DHT22;1020;48.854;8.830;2023-05-31T11:05:55;31.50;99.90
2030;DHT22;1020;48.854;8.830;2023-05-31T11:08:23;32.10;99.90
2030;DHT22;1020;48.854;8.830;2023-05-31T11:10:50;32.20;99.90
2030;DHT22;1020;48.854;8.830;2023-05-31T11:13:17;31.80;99.90
2030;DHT22;1020;48.854;8.830;2023-05-31T11:15:46;31.50;99.90
2030;DHT22;1020;48.854;8.830;2023-05-31T11:18:22;31.70;99.90
2030;DHT22;1020;48.854;8.830;2023-05-31T11:20:49;31.60;99.90
2030;DHT22;1020;48.854;8.830;2023-05-31T11:23:41;31.30;99.90
2030;DHT22;1020;48.854;8.830;2023-05-31T11:26:20;30.90;99.90
2030;DHT22;1020;48.854;8.830;2023-05-31T11:28:54;31.40;99.90
2030;DHT22;1020;48.854;8.830;2023-05-31T11:31:57;31.30;99.90
2030;DHT22;1020;48.854;8.830;2023-05-31T11:34:26;31.70;99.90
2030;DHT22;1020;48.854;8.830;2023-05-31T11:36:56;32.50;99.90
2030;DHT22;1020;48.854;8.830;2023-05-31T11:39:25;32.00;99.90
2030;DHT22;1020;48.854;8.830;2023-05-31T11:41:53;32.00;99.90
2030;DHT22;1020;48.854;8.830;2023-05-31T11:44:25;32.00;99.90
2030;DHT22;1020;48.854;8.830;2023-05-31T11:46:59;32.10;99.90
2030;DHT22;1020;48.854;8.830;2023-05-31T11:49:30;32.20;99.90
2030;DHT22;1020;48.854;8.830;2023-05-31T11:51:57;32.20;99.90
2030;DHT22;1020;48.854;8.830;2023-05-31T11:54:27;32.50;99.90
2030;DHT22;1020;48.854;8.830;2023-05-31T11:56:57;32.70;99.90
2030;DHT22;1020;48.854;8.830;2023-05-31T11:59:25;32.40;99.90
2030;DHT22;1020;48.854;8.830;2023-05-31T12:01:56;31.90;99.90
2030;DHT22;1020;48.854;8.830;2023-05-31T12:04:28;30.70;99.90
2030;DHT22;1020;48.854;8.830;2023-05-31T12:06:56;31.00;99.90
2030;DHT22;1020;48.854;8.830;2023-05-31T12:09:23;30.70;99.90
2030;DHT22;1020;48.854;8.830;2023-05-31T12:11:52;31.00;99.90
2030;DHT22;1020;48.854;8.830;2023-05-31T12:14:20;31.80;99.90
2030;DHT22;1020;48.854;8.830;2023-05-31T12:16:47;32.20;99.90
2030;DHT22;1020;48.854;8.830;2023-05-31T12:19:15;32.80;99.90
2030;DHT22;1020;48.854;8.830;2023-05-31T12:21:42;32.70;99.90
2030;DHT22;1020;48.854;8.830;2023-05-31T12:24:11;32.80;99.90
2030;DHT22;1020;48.854;8.830;2023-05-31T12:26:39;32.90;99.90
2030;DHT22;1020;48.854;8.830;2023-05-31T12:29:07;33.10;99.90
2030;DHT22;1020;48.854;8.830;2023-05-31T12:31:36;33.00;99.90
2030;DHT22;1020;48.854;8.830;2023-05-31T12:34:07;32.00;99.90
2030;DHT22;1020;48.854;8.830;2023-05-31T12:36:42;31.40;99.90
2030;DHT22;1020;48.854;8.830;2023-05-31T12:39:11;31.30;99.90
2030;DHT22;1020;48.854;8.830;2023-05-31T12:41:41;30.70;99.90
2030;DHT22;1020;48.854;8.830;2023-05-31T12:44:12;30.80;99.90
2030;DHT22;1020;48.854;8.830;2023-05-31T12:46:40;30.90;99.90
2030;DHT22;1020;48.854;8.830;2023-05-31T12:49:14;31.70;99.90
2030;DHT22;1020;48.854;8.830;2023-05-31T12:51:44;32.00;99.90
2030;DHT22;1020;48.854;8.830;2023-05-31T12:54:11;31.80;99.90
2030;DHT22;1020;48.854;8.830;2023-05-31T12:56:39;31.60;99.90
2030;DHT22;1020;48.854;8.830;2023-05-31T12:59:06;31.60;99.90
2030;DHT22;1020;48.854;8.830;2023-05-31T13:01:35;32.30;99.90
2030;DHT22;1020;48.854;8.830;2023-05-31T13:04:04;31.60;99.90
2030;DHT22;1020;48.854;8.830;2023-05-31T13:06:31;31.20;99.90
2030;DHT22;1020;48.854;8.830;2023-05-31T13:08:58;31.20;99.90
2030;DHT22;1020;48.854;8.830;2023-05-31T13:11:25;31.40;99.90
2030;DHT22;1020;48.854;8.830;2023-05-31T13:13:52;31.20;99.90
2030;DHT22;1020;48.854;8.830;2023-05-31T13:16:19;31.60;99.90
2030;DHT22;1020;48.854;8.830;2023-05-31T13:18:47;31.50;99.90
2030;DHT22;1020;48.854;8.830;2023-05-31T13:21:14;31.80;99.90
2030;DHT22;1020;48.854;8.830;2023-05-31T13:23:41;31.80;99.90
2030;DHT22;1020;48.854;8.830;2023-05-31T13:26:08;31.10;99.90
2030;DHT22;1020;48.854;8.830;2023-05-31T13:28:35;30.60;99.90
2030;DHT22;1020;48.854;8.830;2023-05-31T13:31:01;30.50;99.90
2030;DHT22;1020;48.854;8.830;2023-05-31T13:33:28;30.80;99.90
2030;DHT22;1020;48.854;8.830;2023-05-31T13:35:58;30.70;99.90
2030;DHT22;1020;48.854;8.830;2023-05-31T13:38:25;30.20;99.90
2030;DHT22;1020;48.854;8.830;2023-05-31T13:40:52;30.30;99.90
2030;DHT22;1020;48.854;8.830;2023-05-31T13:43:20;30.50;99.90
2030;DHT22;1020;48.854;8.830;2023-05-31T13:45:47;30.40;99.90
2030;DHT22;1020;48.854;8.830;2023-05-31T13:48:14;29.10;99.90
2030;DHT22;1020;48.854;8.830;2023-05-31T13:50:40;30.90;99.90
2030;DHT22;1020;48.854;8.830;2023-05-31T13:53:09;31.00;99.90
2030;DHT22;1020;48.854;8.830;2023-05-31T13:55:36;30.80;99.90
2030;DHT22;1020;48.854;8.830;2023-05-31T13:58:03;31.30;99.90
2030;DHT22;1020;48.854;8.830;2023-05-31T14:00:30;31.60;99.90
2030;DHT22;1020;48.854;8.830;2023-05-31T14:02:57;31.70;99.90
2030;DHT22;1020;48.854;8.830;2023-05-31T14:05:24;31.20;99.90
2030;DHT22;1020;48.854;8.830;2023-05-31T14:07:52;31.10;99.90
2030;DHT22;1020;48.854;8.830;2023-05-31T14:10:20;30.70;99.90
2030;DHT22;1020;48.854;8.830;2023-05-31T14:12:47;30.40;99.90
2030;DHT22;1020;48.854;8.830;2023-05-31T14:15:14;30.20;99.90
2030;DHT22;1020;48.854;8.830;2023-05-31T14:17:41;30.10;99.90
2030;DHT22;1020;48.854;8.830;2023-05-31T14:20:10;30.10;99.90
2030;DHT22;1020;48.854;8.830;2023-05-31T14:22:37;29.90;99.90
2030;DHT22;1020;48.854;8.830;2023-05-31T14:25:05;29.70;99.90
2030;DHT22;1020;48.854;8.830;2023-05-31T14:27:34;29.40;99.90
2030;DHT22;1020;48.854;8.830;2023-05-31T14:30:00;28.90;99.90
2030;DHT22;1020;48.854;8.830;2023-05-31T14:32:28;28.90;99.60
2030;DHT22;1020;48.854;8.830;2023-05-31T14:34:55;28.50;98.40
2030;DHT22;1020;48.854;8.830;2023-05-31T14:37:21;28.50;98.70
2030;DHT22;1020;48.854;8.830;2023-05-31T14:39:48;28.20;98.20
2030;DHT22;1020;48.854;8.830;2023-05-31T14:42:15;28.30;98.50
2030;DHT22;1020;48.854;8.830;2023-05-31T14:44:43;28.70;99.90
2030;DHT22;1020;48.854;8.830;2023-05-31T14:47:10;28.60;99.90
2030;DHT22;1020;48.854;8.830;2023-05-31T14:49:37;28.40;99.00
2030;DHT22;1020;48.854;8.830;2023-05-31T14:52:04;28.30;98.70
2030;DHT22;1020;48.854;8.830;2023-05-31T14:54:33;28.50;99.90
2030;DHT22;1020;48.854;8.830;2023-05-31T14:56:59;28.80;99.90
2030;DHT22;1020;48.854;8.830;2023-05-31T14:59:28;29.20;99.90
2030;DHT22;1020;48.854;8.830;2023-05-31T15:01:56;29.20;99.90
2030;DHT22;1020;48.854;8.830;2023-05-31T15:04:25;28.90;99.90
2030;DHT22;1020;48.854;8.830;2023-05-31T15:06:52;28.80;99.90
2030;DHT22;1020;48.854;8.830;2023-05-31T15:09:19;28.70;99.90
2030;DHT22;1020;48.854;8.830;2023-05-31T15:11:46;28.30;99.70
2030;DHT22;1020;48.854;8.830;2023-05-31T15:14:13;28.30;99.90
2030;DHT22;1020;48.854;8.830;2023-05-31T15:16:41;30.20;99.90
2030;DHT22;1020;48.854;8.830;2023-05-31T15:19:09;28.60;99.90
2030;DHT22;1020;48.854;8.830;2023-05-31T15:21:36;28.70;99.90
2030;DHT22;1020;48.854;8.830;2023-05-31T15:24:03;28.60;99.90
2030;DHT22;1020;48.854;8.830;2023-05-31T15:26:30;28.40;99.90
2030;DHT22;1020;48.854;8.830;2023-05-31T15:28:56;28.30;99.90
2030;DHT22;1020;48.854;8.830;2023-05-31T15:31:23;28.40;99.90
2030;DHT22;1020;48.854;8.830;2023-05-31T15:33:50;28.40;99.90
2030;DHT22;1020;48.854;8.830;2023-05-31T15:36:18;28.20;99.90
2030;DHT22;1020;48.854;8.830;2023-05-31T15:38:45;28.40;99.90
2030;DHT22;1020;48.854;8.830;2023-05-31T15:41:12;28.60;99.90
2030;DHT22;1020;48.854;8.830;2023-05-31T15:43:39;28.80;99.90
2030;DHT22;1020;48.854;8.830;2023-05-31T15:46:05;28.50;99.90
2030;DHT22;1020;48.854;8.830;2023-05-31T15:48:32;28.30;99.90
2030;DHT22;1020;48.854;8.830;2023-05-31T15:50:59;28.30;99.90
2030;DHT22;1020;48.854;8.830;2023-05-31T15:53:27;28.00;99.90
2030;DHT22;1020;48.854;8.830;2023-05-31T15:55:53;27.90;99.90
2030;DHT22;1020;48.854;8.830;2023-05-31T15:58:20;27.80;99.90
2030;DHT22;1020;48.854;8.830;2023-05-31T16:00:47;27.60;99.80
2030;DHT22;1020;48.854;8.830;2023-05-31T16:03:14;27.50;98.80
2030;DHT22;1020;48.854;8.830;2023-05-31T16:05:41;27.60;99.90
2030;DHT22;1020;48.854;8.830;2023-05-31T16:08:08;27.60;99.90